createdAt,value
2023-01-18T00:04:27.003Z,92830.75
2023-01-18T00:09:28.879Z,92840.81
2023-01-18T00:14:30.819Z,92848.56
2023-01-18T00:19:34.156Z,92842.41
2023-01-18T00:24:36.144Z,92844.69
2023-01-18T00:29:39.154Z,92840.03
2023-01-18T00:34:41.865Z,92838.84
2023-01-18T00:39:43.493Z,92848.91
2023-01-18T00:44:45.604Z,92833.44
2023-01-18T00:49:47.587Z,92831.94
2023-01-18T00:54:49.497Z,92833.88
2023-01-18T00:59:51.399Z,92830.41
2023-01-18T01:05:12.198Z,92848.16
2023-01-18T01:10:14.216Z,92857.88
2023-01-18T01:15:34.626Z,92858.28
2023-01-18T01:20:55.012Z,92861.72
2023-01-18T01:26:05.884Z,92861.41
2023-01-18T01:31:10.803Z,92871.03
2023-01-18T01:36:15.396Z,92869.09
2023-01-18T01:41:23.952Z,92860.63
2023-01-18T01:46:33.958Z,92856.41
2023-01-18T01:51:39.894Z,92856.06
2023-01-18T01:56:43.765Z,92858.44
2023-01-18T02:01:46.658Z,92861.91
2023-01-18T02:06:48.698Z,92854.56
2023-01-18T02:11:55.536Z,92856.50
2023-01-18T02:17:12.285Z,92859.63
2023-01-18T02:22:47.983Z,92867.38
2023-01-18T02:28:07.179Z,92867.47
2023-01-18T02:33:15.710Z,92876.00
2023-01-18T02:38:37.670Z,92869.13
2023-01-18T02:44:00.830Z,92863.81
2023-01-18T02:49:22.838Z,92872.53
2023-01-18T02:54:24.776Z,92874.44
2023-01-18T02:59:33.299Z,92887.19
2023-01-18T03:04:54.484Z,92881.44
2023-01-18T03:09:58.767Z,92887.69
2023-01-18T03:15:30.443Z,92902.44
2023-01-18T03:20:38.174Z,92901.06
2023-01-18T03:25:45.420Z,92907.03
2023-01-18T03:31:08.892Z,92911.31
2023-01-18T03:36:42.215Z,92918.03
2023-01-18T03:41:49.368Z,92920.09
2023-01-18T03:46:51.799Z,92906.72
2023-01-18T03:52:15.543Z,92922.91
2023-01-18T03:57:25.909Z,92931.81
2023-01-18T04:02:28.692Z,92921.88
2023-01-18T04:07:33.760Z,92929.97
2023-01-18T04:12:35.668Z,92935.47
2023-01-18T04:17:37.501Z,92933.88
2023-01-18T04:22:39.686Z,92936.22
2023-01-18T04:27:41.576Z,92946.19
2023-01-18T04:32:46.289Z,92951.97
2023-01-18T04:37:53.059Z,92956.34
2023-01-18T04:42:55.221Z,92952.88
2023-01-18T04:47:57.250Z,92958.56
2023-01-18T04:52:59.426Z,92945.06
2023-01-18T04:58:01.366Z,92943.13
2023-01-18T05:03:03.161Z,92940.03
2023-01-18T05:08:05.079Z,92946.09
2023-01-18T05:13:07.374Z,92967.06
2023-01-18T05:18:09.123Z,92975.00
2023-01-18T05:23:11.193Z,92973.59
2023-01-18T05:28:12.861Z,92983.72
2023-01-18T05:33:14.558Z,92986.91
2023-01-18T05:38:16.638Z,92989.66
2023-01-18T05:43:19.884Z,93002.78
2023-01-18T05:48:22.013Z,93010.47
2023-01-18T05:53:24.348Z,93016.63
2023-01-18T05:58:27.389Z,93017.03
2023-01-18T06:03:29.166Z,93031.63
2023-01-18T06:08:30.874Z,93030.13
2023-01-18T06:13:32.996Z,93030.06
2023-01-18T06:18:34.949Z,93045.78
2023-01-18T06:23:36.603Z,93053.03
2023-01-18T06:28:38.243Z,93063.13
2023-01-18T06:33:40.177Z,93054.63
2023-01-18T06:38:43.859Z,93060.84
2023-01-18T06:43:47.476Z,93070.81
2023-01-18T06:48:53.999Z,93074.63
2023-01-18T06:54:05.526Z,93064.16
2023-01-18T06:59:11.972Z,93078.41
2023-01-18T07:04:14.265Z,93074.88
2023-01-18T07:09:18.441Z,93081.41
2023-01-18T07:14:21.790Z,93084.44
2023-01-18T07:19:30.878Z,93092.91
2023-01-18T07:24:36.346Z,93103.72
2023-01-18T07:29:39.752Z,93116.81
2023-01-18T07:34:46.642Z,93119.91
2023-01-18T07:39:53.208Z,93133.31
2023-01-18T07:45:03.661Z,93121.31
2023-01-18T07:50:07.065Z,93132.00
2023-01-18T07:55:17.124Z,93140.78
2023-01-18T08:00:22.966Z,93139.94
2023-01-18T08:05:32.000Z,93152.13
2023-01-18T08:10:38.470Z,93150.50
2023-01-18T08:15:46.231Z,93155.84
2023-01-18T08:21:16.893Z,93168.50
2023-01-18T08:26:18.869Z,93171.97
2023-01-18T08:31:22.021Z,93176.63
2023-01-18T08:36:25.796Z,93184.25
2023-01-18T08:41:31.160Z,93199.22
2023-01-18T08:46:32.977Z,93208.53
2023-01-18T08:51:34.852Z,93210.09
2023-01-18T08:56:36.710Z,93212.34
2023-01-18T09:01:38.629Z,93219.66
2023-01-18T09:06:40.574Z,93225.78
2023-01-18T09:11:42.317Z,93229.59
2023-01-18T09:16:44.528Z,93244.22
2023-01-18T09:21:46.760Z,93255.00
2023-01-18T09:26:52.396Z,93264.97
2023-01-18T09:31:55.958Z,93267.31
2023-01-18T09:36:58.266Z,93278.88
2023-01-18T09:42:02.342Z,93288.56
2023-01-18T09:47:24.181Z,93297.78
2023-01-18T09:52:51.584Z,93295.50
2023-01-18T09:57:56.578Z,93299.72
2023-01-18T10:03:02.723Z,93310.91
2023-01-18T10:08:13.536Z,93310.06
2023-01-18T10:13:24.365Z,93306.91
2023-01-18T10:18:26.224Z,93314.56
2023-01-18T10:23:40.746Z,93323.38
2023-01-18T10:28:55.503Z,93330.69
2023-01-18T10:34:01.172Z,93339.59
2023-01-18T10:39:13.410Z,93344.69
2023-01-18T10:44:15.008Z,93347.81
2023-01-18T10:49:40.930Z,93358.97
2023-01-18T10:54:50.067Z,93369.81
2023-01-18T10:59:53.760Z,93375.19
2023-01-18T11:05:04.434Z,93387.13
2023-01-18T11:10:09.694Z,93389.81
2023-01-18T11:15:14.585Z,93392.09
2023-01-18T11:20:23.391Z,93404.13
2023-01-18T11:25:40.814Z,93410.78
2023-01-18T11:31:00.829Z,93420.94
2023-01-18T11:36:03.517Z,93417.06
2023-01-18T11:41:20.100Z,93422.47
2023-01-18T11:46:35.065Z,93443.38
2023-01-18T11:51:45.902Z,93450.03
2023-01-18T11:56:55.859Z,93461.28
2023-01-18T12:02:35.453Z,93464.16
2023-01-18T12:08:06.860Z,93471.63
2023-01-18T12:13:33.848Z,93491.75
2023-01-18T12:19:18.106Z,93487.53
2023-01-18T12:24:34.006Z,93500.22
2023-01-18T12:29:50.590Z,93503.34
2023-01-18T12:35:23.814Z,93521.94
2023-01-18T12:40:48.641Z,93532.38
2023-01-18T12:46:19.445Z,93555.16
2023-01-18T12:51:24.705Z,93553.25
2023-01-18T12:56:33.177Z,93548.69
2023-01-18T13:01:42.903Z,93558.75
2023-01-18T13:06:47.276Z,93561.03
2023-01-18T13:11:49.776Z,93579.16
2023-01-18T13:17:04.308Z,93589.16
2023-01-18T13:22:48.000Z,93595.34
2023-01-18T13:28:00.688Z,93605.00
2023-01-18T13:33:13.757Z,93620.41
2023-01-18T13:38:27.500Z,93630.47
2023-01-18T13:43:34.299Z,93641.31
2023-01-18T13:48:45.409Z,93659.81
2023-01-18T13:53:49.799Z,93679.47
2023-01-18T13:58:55.028Z,93679.47
2023-01-18T14:03:58.264Z,93688.31
2023-01-18T14:09:18.332Z,93698.75
2023-01-18T14:14:20.407Z,93704.13
2023-01-18T14:19:23.056Z,93711.81
2023-01-18T14:24:28.863Z,93720.69
2023-01-18T14:29:44.453Z,93730.69
2023-01-18T14:34:46.345Z,93741.09
2023-01-18T14:39:48.191Z,93746.13
2023-01-18T14:44:58.164Z,93749.59
2023-01-18T14:50:04.803Z,93765.38
2023-01-18T14:55:22.305Z,93768.44
2023-01-18T15:00:24.927Z,93790.81
2023-01-18T15:05:29.779Z,93788.88
2023-01-18T15:10:32.004Z,93793.09
2023-01-18T15:15:40.678Z,93800.44
2023-01-18T15:21:02.337Z,93824.31
2023-01-18T15:26:04.223Z,93813.16
2023-01-18T15:31:13.559Z,93827.78
2023-01-18T15:36:16.963Z,93835.88
2023-01-18T15:41:18.659Z,93844.72
2023-01-18T15:46:20.608Z,93857.03
2023-01-18T15:51:42.886Z,93875.16
2023-01-18T15:56:46.228Z,93879.38
2023-01-18T16:02:13.614Z,93883.22
2023-01-18T16:07:37.531Z,93901.34
2023-01-18T16:12:40.414Z,93904.03
2023-01-18T16:17:44.870Z,93909.44
2023-01-18T16:22:48.313Z,93932.13
2023-01-18T16:27:53.027Z,93922.50
2023-01-18T16:32:54.734Z,93928.69
2023-01-18T16:37:57.934Z,93938.69
2023-01-18T16:43:07.573Z,93948.31
2023-01-18T16:48:16.981Z,93959.91
2023-01-18T16:53:18.831Z,93961.41
2023-01-18T16:58:21.385Z,93958.72
2023-01-18T17:03:23.753Z,93969.91
2023-01-18T17:08:25.487Z,93980.31
2023-01-18T17:13:27.359Z,93989.16
2023-01-18T17:18:29.043Z,93999.56
2023-01-18T17:23:30.716Z,94016.53
2023-01-18T17:28:32.553Z,94023.84
2023-01-18T17:33:38.505Z,94027.31
2023-01-18T17:38:40.387Z,94049.66
2023-01-18T17:43:42.112Z,94048.91
2023-01-18T17:48:44.489Z,94060.06
2023-01-18T17:53:47.943Z,94062.75
2023-01-18T17:58:54.355Z,94078.19
2023-01-18T18:09:12.748Z,94099.41
2023-01-18T18:14:14.943Z,94108.28
2023-01-18T18:19:16.898Z,94106.31
2023-01-18T18:24:18.896Z,94110.94
2023-01-18T18:29:20.915Z,94132.13
2023-01-18T18:34:22.759Z,94138.28
2023-01-18T18:39:24.775Z,94146.38
2023-01-18T18:44:27.721Z,94156.81
2023-01-18T18:49:29.853Z,94170.66
2023-01-18T18:54:31.698Z,94175.66
2023-01-18T18:59:33.347Z,94192.97
2023-01-18T19:04:35.112Z,94194.88
2023-01-18T19:09:37.087Z,94208.75
2023-01-18T19:14:39.219Z,94221.88
2023-01-18T19:19:41.097Z,94231.13
2023-01-18T19:24:43.341Z,94245.78
2023-01-18T19:29:45.203Z,94243.84
2023-01-18T19:34:47.136Z,94256.97
2023-01-18T19:39:49.076Z,94277.75
2023-01-18T19:44:53.827Z,94283.13
2023-01-18T19:49:57.574Z,94275.06
2023-01-18T19:54:59.473Z,94272.00
2023-01-18T20:00:07.124Z,94286.25
2023-01-18T20:05:13.649Z,94295.47
2023-01-18T20:10:20.173Z,94291.22
2023-01-18T20:15:23.113Z,94302.78
2023-01-18T20:20:32.608Z,94310.50
2023-01-18T20:25:34.677Z,94312.09
2023-01-18T20:30:36.780Z,94311.69
2023-01-18T20:35:39.184Z,94321.34
2023-01-18T20:40:41.146Z,94326.34
2023-01-18T20:45:42.969Z,94332.13
2023-01-18T20:50:44.730Z,94340.59
2023-01-18T20:55:46.671Z,94347.97
2023-01-18T21:00:49.268Z,94358.78
2023-01-18T21:05:53.459Z,94359.13
2023-01-18T21:10:55.263Z,94370.28
2023-01-18T21:15:58.791Z,94385.28
2023-01-18T21:21:01.040Z,94378.38
2023-01-18T21:26:02.899Z,94383.78
2023-01-18T21:31:05.554Z,94400.00
2023-01-18T21:36:11.924Z,94406.94
2023-01-18T21:41:32.641Z,94421.97
2023-01-18T21:46:34.438Z,94430.09
2023-01-18T21:51:54.813Z,94438.94
2023-01-18T21:56:56.683Z,94444.63
2023-01-18T22:01:58.596Z,94439.59
2023-01-18T22:07:01.230Z,94453.06
2023-01-18T22:12:02.982Z,94457.28
2023-01-18T22:17:05.020Z,94471.13
2023-01-18T22:22:06.937Z,94480.72
2023-01-18T22:27:09.056Z,94478.78
2023-01-18T22:32:10.802Z,94485.69
2023-01-18T22:37:12.668Z,94486.47
2023-01-18T22:42:15.585Z,94483.75
2023-01-18T22:47:17.412Z,94486.41
2023-01-18T22:52:19.489Z,94497.19
2023-01-18T22:57:23.276Z,94498.75
2023-01-18T23:02:25.109Z,94495.69
2023-01-18T23:07:26.911Z,94491.00
2023-01-18T23:12:28.733Z,94482.88
2023-01-18T23:17:39.675Z,94482.81
2023-01-18T23:22:41.590Z,94495.47
2023-01-18T23:27:43.912Z,94486.16
2023-01-18T23:32:45.883Z,94496.44
2023-01-18T23:37:47.793Z,94503.31
2023-01-18T23:43:11.846Z,94508.97
2023-01-18T23:48:38.391Z,94518.16
2023-01-18T23:53:58.761Z,94510.06
2023-01-18T23:59:00.568Z,94516.59
